Terminal Aerodrome Forecast
Issued by NWS

Home | Current Version | Previous Version | Text Only | Print | Product List | Glossary On
Versions: 1 2 3 4 5 6 7 8 9 10 11 12 13 14 15 16 17 18 19 20 21 22
000
FTUS42 KGSP 111700
TAFGMU
TAF
KGMU 111737Z 1118/1218 07006KT P6SM SCT050
     FM112100 10006KT P6SM BKN050
     FM120000 00000KT P6SM SCT040
     FM120800 00000KT 4SM BR SCT040
      TEMPO 1210/1213 3SM BR SCT020
     FM121300 08003KT P6SM SCT030
     FM121500 08004KT P6SM SCT250=

USA.gov is the U.S. government's official web portal to all federal, state and local government web resources and services.